createdAt,value
2023-03-24T19:00:28.540Z,99097.21
2023-03-24T19:02:56.492Z,99089.86
2023-03-24T19:05:23.747Z,99089.23
2023-03-24T19:07:52.690Z,99084.79
2023-03-24T19:10:21.135Z,99082.66
2023-03-24T19:12:49.548Z,99083.75
2023-03-24T19:15:18.083Z,99082.73
2023-03-24T19:17:45.980Z,99085.77
2023-03-24T19:20:18.020Z,99079.73
2023-03-24T19:22:46.185Z,99076.50
2023-03-24T19:25:15.147Z,99077.83
2023-03-24T19:27:47.405Z,99074.57
2023-03-24T19:30:15.222Z,99069.24
2023-03-24T19:32:42.866Z,99064.16
2023-03-24T19:35:10.533Z,99063.90
2023-03-24T19:37:39.224Z,99063.38
2023-03-24T19:40:09.957Z,99061.13
2023-03-24T19:42:40.542Z,99059.56
2023-03-24T19:45:08.811Z,99059.95
2023-03-24T19:47:36.444Z,99062.37
2023-03-24T19:50:04.436Z,99070.14
2023-03-24T19:52:35.750Z,99064.52
2023-03-24T19:55:06.184Z,99060.13
2023-03-24T19:57:33.706Z,99060.48
2023-03-24T20:00:01.590Z,99061.54
2023-03-24T20:02:32.740Z,99062.70
2023-03-24T20:05:00.698Z,99064.70
2023-03-24T20:07:28.486Z,99062.27
2023-03-24T20:09:55.930Z,99060.15
2023-03-24T20:12:26.193Z,99062.80
2023-03-24T20:14:54.419Z,99067.41
2023-03-24T20:17:24.669Z,99066.39
2023-03-24T20:19:53.911Z,99067.19
2023-03-24T20:22:21.640Z,99061.16
2023-03-24T20:24:49.683Z,99056.81
2023-03-24T20:27:18.863Z,99055.81
2023-03-24T20:29:46.775Z,99052.77
2023-03-24T20:32:14.601Z,99049.56
2023-03-24T20:34:43.186Z,99045.52
2023-03-24T20:37:10.945Z,99038.81
2023-03-24T20:39:40.040Z,99038.40
2023-03-24T20:42:10.717Z,99039.35
2023-03-24T20:44:38.536Z,99038.58
2023-03-24T20:47:07.201Z,99037.06
2023-03-24T20:49:35.017Z,99036.22
2023-03-24T20:52:02.738Z,99035.66
2023-03-24T20:54:32.162Z,99031.81
2023-03-24T20:57:00.923Z,99030.30
2023-03-24T20:59:34.132Z,99027.83
2023-03-24T21:02:01.994Z,99022.96
2023-03-24T21:04:35.189Z,99016.88
2023-03-24T21:07:03.349Z,99011.71
2023-03-24T21:09:33.085Z,99006.86
2023-03-24T21:12:03.201Z,99003.58
2023-03-24T21:14:31.997Z,98999.44
2023-03-24T21:17:00.842Z,99001.35
2023-03-24T21:19:28.946Z,98994.11
2023-03-24T21:21:58.376Z,98986.16
2023-03-24T21:24:31.840Z,98985.84
2023-03-24T21:27:01.333Z,98985.95
2023-03-24T21:29:29.419Z,98978.22
2023-03-24T21:31:57.292Z,98979.70
2023-03-24T21:34:25.306Z,98980.95
2023-03-24T21:36:53.181Z,98975.42
2023-03-24T21:39:21.290Z,98964.48
2023-03-24T21:41:49.053Z,98958.14
2023-03-24T21:44:24.542Z,98949.69
2023-03-24T21:46:52.065Z,98946.46
2023-03-24T21:49:22.285Z,98942.70
2023-03-24T21:51:54.263Z,98937.81
2023-03-24T21:54:22.722Z,98934.48
2023-03-24T21:56:50.623Z,98934.71
2023-03-24T21:59:18.256Z,98935.86
2023-03-24T22:01:47.120Z,98935.41
2023-03-24T22:04:15.516Z,98937.66
2023-03-24T22:06:47.070Z,98935.90
2023-03-24T22:09:18.316Z,98930.99
2023-03-24T22:11:46.181Z,98931.60
2023-03-24T22:14:15.582Z,98933.11
2023-03-24T22:16:43.598Z,98930.13
2023-03-24T22:19:11.417Z,98929.88
2023-03-24T22:21:40.002Z,98926.88
2023-03-24T22:24:07.953Z,98922.20
2023-03-24T22:26:35.541Z,98912.05
2023-03-24T22:29:04.855Z,98910.52
2023-03-24T22:31:33.920Z,98915.00
2023-03-24T22:34:01.702Z,98914.09
2023-03-24T22:36:29.254Z,98910.96
2023-03-24T22:38:56.766Z,98905.35
2023-03-24T22:41:24.673Z,98896.63
2023-03-24T22:43:51.537Z,98898.10
2023-03-24T22:46:18.378Z,98894.80
2023-03-24T22:48:46.780Z,98889.95
2023-03-24T22:51:18.692Z,98883.23
2023-03-24T22:53:49.220Z,98877.67
2023-03-24T22:56:16.796Z,98877.07
2023-03-24T22:58:44.459Z,98863.80
2023-03-24T23:01:11.999Z,98855.23
2023-03-24T23:03:39.678Z,98850.27
2023-03-24T23:06:11.328Z,98845.79
2023-03-24T23:08:40.030Z,98829.01
2023-03-24T23:11:08.077Z,98827.55
2023-03-24T23:13:39.073Z,98824.58
2023-03-24T23:16:07.206Z,98816.55
2023-03-24T23:18:37.408Z,98811.38
2023-03-24T23:21:06.707Z,98799.71
2023-03-24T23:23:34.615Z,98794.66
2023-03-24T23:26:04.589Z,98790.02
2023-03-24T23:28:32.698Z,98783.06
2023-03-24T23:31:01.269Z,98778.19
2023-03-24T23:33:29.542Z,98771.48
2023-03-24T23:35:57.857Z,98767.12
2023-03-24T23:38:28.633Z,98764.82
2023-03-24T23:40:55.987Z,98759.04
2023-03-24T23:43:23.445Z,98756.12
2023-03-24T23:45:56.036Z,98758.80
2023-03-24T23:48:23.965Z,98753.58
2023-03-24T23:51:00.763Z,98744.58
2023-03-24T23:53:42.874Z,98736.31
2023-03-24T23:56:12.065Z,98726.52
2023-03-24T23:58:40.848Z,98724.02
